Main page
METAR-TAF:

METAR-TAF

Airports :

Lille Airport

Lille, France

latitude: 50-34N, longitude: 003-06E, elevation: 48 m

Current weather observation

The report was made 35 minutes ago, at 09:30 UTC
Wind 8 kt from the North
Temperature 10°C
Humidity 71%
Pressure 1029 hPa
Visibility 10 km or more
no clouds below 1500 m and no cumulonimbus

METAR: LFQQ 240930Z AUTO 36008KT CAVOK 10/05 Q1029 NOSIG

Time: 11:05 (10:05 UTC)

Forecast

The report was made 5 hours and 5 minutes ago, at 05:00 UTC
Forecast valid from 24 at 06 UTC to 25 at 12 UTC
Wind 12 kt from the North/Northeast
Visibility 10 km or more
no clouds below 1500 m and no cumulonimbus
Becoming
from 24 at 17 UTC to 24 at 19 UTC
Wind 2 kt from variable directions
Becoming
from 25 at 00 UTC to 25 at 03 UTC
Wind 12 kt from the West/Northwest
Becoming
from 25 at 09 UTC to 25 at 11 UTC
Wind 15 kt from the North with gusts up to 25 kt

TAF: LFQQ 240500Z 2406/2512 02012KT CAVOK BECMG 2417/2419 VRB02KT BECMG 2500/2503 29012KT BECMG 2509/2511 35015G25KT

Weather observations and forecasts of more than 4000 airports (METAR and TAF reports).

The available stations are represented by yellow and red dots on the map.

Hover mouse over dot to see the name of the station.

Then click to see weather observations and forecasts.

To change the map : click on the green buttons with a black cross to zoom in, on the green button with a dash to zoom out, or on the green arrows for adjacent maps.


METAR-TAF: